sensor_id;sensor_type;location;lat;lon;timestamp;pressure;altitude;pressure_sealevel;temperature
82411;BMP180;76378;60.040;30.218;2024-02-16T00:00:28;101643.00;;;4.80
82411;BMP180;76378;60.040;30.218;2024-02-16T00:01:29;101625.00;;;4.80
82411;BMP180;76378;60.040;30.218;2024-02-16T00:02:29;101602.00;;;4.80
82411;BMP180;76378;60.040;30.218;2024-02-16T00:03:30;101657.00;;;4.80
82411;BMP180;76378;60.040;30.218;2024-02-16T00:04:31;101629.00;;;4.80
82411;BMP180;76378;60.040;30.218;2024-02-16T00:05:32;101656.00;;;4.80
82411;BMP180;76378;60.040;30.218;2024-02-16T00:06:32;101679.00;;;4.80
82411;BMP180;76378;60.040;30.218;2024-02-16T00:07:34;101674.00;;;4.80
82411;BMP180;76378;60.040;30.218;2024-02-16T00:08:34;101666.00;;;4.80
82411;BMP180;76378;60.040;30.218;2024-02-16T00:09:38;101652.00;;;4.80
82411;BMP180;76378;60.040;30.218;2024-02-16T00:10:39;101609.00;;;4.80
82411;BMP180;76378;60.040;30.218;2024-02-16T00:11:40;101664.00;;;4.90
82411;BMP180;76378;60.040;30.218;2024-02-16T00:12:40;101659.00;;;4.80
82411;BMP180;76378;60.040;30.218;2024-02-16T00:13:42;101660.00;;;4.80
82411;BMP180;76378;60.040;30.218;2024-02-16T00:14:42;101665.00;;;4.80
82411;BMP180;76378;60.040;30.218;2024-02-16T00:15:43;101672.00;;;4.90
82411;BMP180;76378;60.040;30.218;2024-02-16T00:16:44;101649.00;;;4.90
82411;BMP180;76378;60.040;30.218;2024-02-16T00:17:45;101670.00;;;4.90
82411;BMP180;76378;60.040;30.218;2024-02-16T00:18:45;101628.00;;;4.90
82411;BMP180;76378;60.040;30.218;2024-02-16T00:19:46;101651.00;;;4.90
82411;BMP180;76378;60.040;30.218;2024-02-16T00:20:47;101666.00;;;4.90
82411;BMP180;76378;60.040;30.218;2024-02-16T00:21:47;101677.00;;;4.90
82411;BMP180;76378;60.040;30.218;2024-02-16T00:22:48;101674.00;;;4.90
82411;BMP180;76378;60.040;30.218;2024-02-16T00:23:48;101672.00;;;4.90
82411;BMP180;76378;60.040;30.218;2024-02-16T00:24:49;101603.00;;;4.90
82411;BMP180;76378;60.040;30.218;2024-02-16T00:25:49;101666.00;;;4.90
82411;BMP180;76378;60.040;30.218;2024-02-16T00:26:50;101674.00;;;4.90
82411;BMP180;76378;60.040;30.218;2024-02-16T00:27:51;101628.00;;;4.90
82411;BMP180;76378;60.040;30.218;2024-02-16T00:28:53;101609.00;;;4.90
82411;BMP180;76378;60.040;30.218;2024-02-16T00:29:53;101566.00;;;4.90
82411;BMP180;76378;60.040;30.218;2024-02-16T00:30:54;101676.00;;;4.90
82411;BMP180;76378;60.040;30.218;2024-02-16T00:31:55;101656.00;;;4.90
82411;BMP180;76378;60.040;30.218;2024-02-16T00:32:55;101652.00;;;4.90
82411;BMP180;76378;60.040;30.218;2024-02-16T00:33:56;101594.00;;;4.90
82411;BMP180;76378;60.040;30.218;2024-02-16T00:34:57;101603.00;;;4.90
82411;BMP180;76378;60.040;30.218;2024-02-16T00:35:58;101656.00;;;4.90
82411;BMP180;76378;60.040;30.218;2024-02-16T00:36:58;101668.00;;;4.90
82411;BMP180;76378;60.040;30.218;2024-02-16T00:38:00;101643.00;;;4.90
82411;BMP180;76378;60.040;30.218;2024-02-16T00:39:00;101661.00;;;4.90
82411;BMP180;76378;60.040;30.218;2024-02-16T00:40:01;101656.00;;;4.90
82411;BMP180;76378;60.040;30.218;2024-02-16T00:41:01;101658.00;;;5.00
82411;BMP180;76378;60.040;30.218;2024-02-16T00:42:02;101609.00;;;4.90
82411;BMP180;76378;60.040;30.218;2024-02-16T00:43:03;101636.00;;;4.90
82411;BMP180;76378;60.040;30.218;2024-02-16T00:44:04;101592.00;;;5.00
82411;BMP180;76378;60.040;30.218;2024-02-16T00:45:04;101637.00;;;4.90
82411;BMP180;76378;60.040;30.218;2024-02-16T00:46:05;101652.00;;;5.00
82411;BMP180;76378;60.040;30.218;2024-02-16T00:47:05;101647.00;;;5.00
82411;BMP180;76378;60.040;30.218;2024-02-16T00:48:06;101644.00;;;5.00
82411;BMP180;76378;60.040;30.218;2024-02-16T00:49:07;101589.00;;;5.00
82411;BMP180;76378;60.040;30.218;2024-02-16T00:50:10;101650.00;;;5.00
82411;BMP180;76378;60.040;30.218;2024-02-16T00:51:11;101654.00;;;5.00
82411;BMP180;76378;60.040;30.218;2024-02-16T00:52:11;101602.00;;;5.00
82411;BMP180;76378;60.040;30.218;2024-02-16T00:53:12;101632.00;;;5.00
82411;BMP180;76378;60.040;30.218;2024-02-16T00:54:13;101616.00;;;5.00
82411;BMP180;76378;60.040;30.218;2024-02-16T00:55:13;101597.00;;;5.00
82411;BMP180;76378;60.040;30.218;2024-02-16T00:56:14;101670.00;;;5.00
82411;BMP180;76378;60.040;30.218;2024-02-16T00:57:15;101618.00;;;5.00
82411;BMP180;76378;60.040;30.218;2024-02-16T00:58:16;101665.00;;;5.00
82411;BMP180;76378;60.040;30.218;2024-02-16T00:59:17;101664.00;;;5.00
82411;BMP180;76378;60.040;30.218;2024-02-16T01:00:17;101645.00;;;5.00
82411;BMP180;76378;60.040;30.218;2024-02-16T01:01:19;101659.00;;;5.00
82411;BMP180;76378;60.040;30.218;2024-02-16T01:02:21;101659.00;;;5.00
82411;BMP180;76378;60.040;30.218;2024-02-16T01:03:22;101664.00;;;5.00
82411;BMP180;76378;60.040;30.218;2024-02-16T01:04:23;101645.00;;;5.00
82411;BMP180;76378;60.040;30.218;2024-02-16T01:05:24;101659.00;;;5.00
82411;BMP180;76378;60.040;30.218;2024-02-16T01:06:24;101651.00;;;5.00
82411;BMP180;76378;60.040;30.218;2024-02-16T01:07:25;101650.00;;;5.00
82411;BMP180;76378;60.040;30.218;2024-02-16T01:08:25;101662.00;;;5.00
82411;BMP180;76378;60.040;30.218;2024-02-16T01:09:27;101648.00;;;5.00
82411;BMP180;76378;60.040;30.218;2024-02-16T01:10:28;101631.00;;;5.00
82411;BMP180;76378;60.040;30.218;2024-02-16T01:11:28;101616.00;;;5.00
82411;BMP180;76378;60.040;30.218;2024-02-16T01:12:29;101655.00;;;5.00
82411;BMP180;76378;60.040;30.218;2024-02-16T01:13:32;101643.00;;;5.00
82411;BMP180;76378;60.040;30.218;2024-02-16T01:14:33;101645.00;;;5.00
82411;BMP180;76378;60.040;30.218;2024-02-16T01:15:33;101642.00;;;5.00
82411;BMP180;76378;60.040;30.218;2024-02-16T01:16:34;101642.00;;;5.00
82411;BMP180;76378;60.040;30.218;2024-02-16T01:17:36;101645.00;;;5.00
82411;BMP180;76378;60.040;30.218;2024-02-16T01:18:36;101638.00;;;5.00
82411;BMP180;76378;60.040;30.218;2024-02-16T01:19:37;101635.00;;;5.00
82411;BMP180;76378;60.040;30.218;2024-02-16T01:20:38;101573.00;;;5.00
82411;BMP180;76378;60.040;30.218;2024-02-16T01:21:39;101645.00;;;5.00
82411;BMP180;76378;60.040;30.218;2024-02-16T01:22:40;101652.00;;;5.00
82411;BMP180;76378;60.040;30.218;2024-02-16T01:23:40;101641.00;;;5.00
82411;BMP180;76378;60.040;30.218;2024-02-16T01:24:41;101566.00;;;5.00
82411;BMP180;76378;60.040;30.218;2024-02-16T01:25:41;101628.00;;;5.00
82411;BMP180;76378;60.040;30.218;2024-02-16T01:26:42;101628.00;;;5.00
82411;BMP180;76378;60.040;30.218;2024-02-16T01:27:43;101612.00;;;5.00
82411;BMP180;76378;60.040;30.218;2024-02-16T01:28:43;101594.00;;;5.00
82411;BMP180;76378;60.040;30.218;2024-02-16T01:29:44;101618.00;;;5.10
82411;BMP180;76378;60.040;30.218;2024-02-16T01:30:44;101632.00;;;5.10
82411;BMP180;76378;60.040;30.218;2024-02-16T01:31:45;101630.00;;;5.10
82411;BMP180;76378;60.040;30.218;2024-02-16T01:32:46;101646.00;;;5.10
82411;BMP180;76378;60.040;30.218;2024-02-16T01:33:47;101648.00;;;5.10
82411;BMP180;76378;60.040;30.218;2024-02-16T01:34:47;101648.00;;;5.10
82411;BMP180;76378;60.040;30.218;2024-02-16T01:35:49;101629.00;;;5.10
82411;BMP180;76378;60.040;30.218;2024-02-16T01:36:50;101647.00;;;5.10
82411;BMP180;76378;60.040;30.218;2024-02-16T01:37:51;101652.00;;;5.10
82411;BMP180;76378;60.040;30.218;2024-02-16T01:38:51;101590.00;;;5.10
82411;BMP180;76378;60.040;30.218;2024-02-16T01:39:52;101632.00;;;5.10
82411;BMP180;76378;60.040;30.218;2024-02-16T01:40:52;101630.00;;;5.10
82411;BMP180;76378;60.040;30.218;2024-02-16T01:41:53;101631.00;;;5.10
82411;BMP180;76378;60.040;30.218;2024-02-16T01:42:54;101642.00;;;5.10
82411;BMP180;76378;60.040;30.218;2024-02-16T01:43:55;101644.00;;;5.10
82411;BMP180;76378;60.040;30.218;2024-02-16T01:44:55;101628.00;;;5.10
82411;BMP180;76378;60.040;30.218;2024-02-16T01:45:56;101612.00;;;5.10
82411;BMP180;76378;60.040;30.218;2024-02-16T01:46:59;101573.00;;;5.10
82411;BMP180;76378;60.040;30.218;2024-02-16T01:48:00;101643.00;;;5.10
82411;BMP180;76378;60.040;30.218;2024-02-16T01:49:01;101629.00;;;5.10
82411;BMP180;76378;60.040;30.218;2024-02-16T01:50:02;101629.00;;;5.10
82411;BMP180;76378;60.040;30.218;2024-02-16T01:51:03;101601.00;;;5.10
82411;BMP180;76378;60.040;30.218;2024-02-16T01:52:05;101628.00;;;5.10
82411;BMP180;76378;60.040;30.218;2024-02-16T01:53:06;101625.00;;;5.10
82411;BMP180;76378;60.040;30.218;2024-02-16T01:54:06;101620.00;;;5.10
82411;BMP180;76378;60.040;30.218;2024-02-16T01:55:07;101632.00;;;5.10
82411;BMP180;76378;60.040;30.218;2024-02-16T01:56:11;101615.00;;;5.10
82411;BMP180;76378;60.040;30.218;2024-02-16T01:57:12;101618.00;;;5.10
82411;BMP180;76378;60.040;30.218;2024-02-16T01:58:13;101630.00;;;5.10
82411;BMP180;76378;60.040;30.218;2024-02-16T01:59:14;101614.00;;;5.10
82411;BMP180;76378;60.040;30.218;2024-02-16T02:00:15;101633.00;;;5.10
82411;BMP180;76378;60.040;30.218;2024-02-16T02:01:17;101604.00;;;5.10
82411;BMP180;76378;60.040;30.218;2024-02-16T02:02:18;101624.00;;;5.20
82411;BMP180;76378;60.040;30.218;2024-02-16T02:03:18;101640.00;;;5.10
82411;BMP180;76378;60.040;30.218;2024-02-16T02:04:19;101582.00;;;5.10
82411;BMP180;76378;60.040;30.218;2024-02-16T02:05:20;101570.00;;;5.10
82411;BMP180;76378;60.040;30.218;2024-02-16T02:06:21;101587.00;;;5.10
82411;BMP180;76378;60.040;30.218;2024-02-16T02:07:25;101567.00;;;5.10
82411;BMP180;76378;60.040;30.218;2024-02-16T02:08:29;101623.00;;;5.10
82411;BMP180;76378;60.040;30.218;2024-02-16T02:09:29;101635.00;;;5.20
82411;BMP180;76378;60.040;30.218;2024-02-16T02:10:30;101637.00;;;5.10
82411;BMP180;76378;60.040;30.218;2024-02-16T02:11:31;101617.00;;;5.20
82411;BMP180;76378;60.040;30.218;2024-02-16T02:12:31;101631.00;;;5.20
82411;BMP180;76378;60.040;30.218;2024-02-16T02:13:32;101622.00;;;5.20
82411;BMP180;76378;60.040;30.218;2024-02-16T02:14:32;101628.00;;;5.20
82411;BMP180;76378;60.040;30.218;2024-02-16T02:15:33;101609.00;;;5.20
82411;BMP180;76378;60.040;30.218;2024-02-16T02:16:33;101612.00;;;5.20
82411;BMP180;76378;60.040;30.218;2024-02-16T02:17:35;101630.00;;;5.20
82411;BMP180;76378;60.040;30.218;2024-02-16T02:18:35;101631.00;;;5.10
82411;BMP180;76378;60.040;30.218;2024-02-16T02:19:36;101618.00;;;5.20
82411;BMP180;76378;60.040;30.218;2024-02-16T02:20:36;101630.00;;;5.20
82411;BMP180;76378;60.040;30.218;2024-02-16T02:21:37;101635.00;;;5.20
82411;BMP180;76378;60.040;30.218;2024-02-16T02:22:38;101634.00;;;5.20
82411;BMP180;76378;60.040;30.218;2024-02-16T02:23:38;101631.00;;;5.20
82411;BMP180;76378;60.040;30.218;2024-02-16T02:24:39;101635.00;;;5.20
82411;BMP180;76378;60.040;30.218;2024-02-16T02:25:39;101638.00;;;5.20
82411;BMP180;76378;60.040;30.218;2024-02-16T02:26:40;101628.00;;;5.20
82411;BMP180;76378;60.040;30.218;2024-02-16T02:27:41;101587.00;;;5.20
82411;BMP180;76378;60.040;30.218;2024-02-16T02:28:42;101627.00;;;5.20
82411;BMP180;76378;60.040;30.218;2024-02-16T02:29:43;101635.00;;;5.20
82411;BMP180;76378;60.040;30.218;2024-02-16T02:30:45;101588.00;;;5.20
82411;BMP180;76378;60.040;30.218;2024-02-16T02:31:46;101581.00;;;5.20
82411;BMP180;76378;60.040;30.218;2024-02-16T02:32:47;101636.00;;;5.20
82411;BMP180;76378;60.040;30.218;2024-02-16T02:33:48;101627.00;;;5.20
82411;BMP180;76378;60.040;30.218;2024-02-16T02:34:49;101571.00;;;5.20
82411;BMP180;76378;60.040;30.218;2024-02-16T02:35:50;101635.00;;;5.20
82411;BMP180;76378;60.040;30.218;2024-02-16T02:36:51;101638.00;;;5.20
82411;BMP180;76378;60.040;30.218;2024-02-16T02:37:51;101632.00;;;5.20
82411;BMP180;76378;60.040;30.218;2024-02-16T02:38:52;101646.00;;;5.20
82411;BMP180;76378;60.040;30.218;2024-02-16T02:39:52;101658.00;;;5.20
82411;BMP180;76378;60.040;30.218;2024-02-16T02:40:53;101644.00;;;5.20
82411;BMP180;76378;60.040;30.218;2024-02-16T02:41:53;101645.00;;;5.20
82411;BMP180;76378;60.040;30.218;2024-02-16T02:42:54;101631.00;;;5.20
82411;BMP180;76378;60.040;30.218;2024-02-16T02:43:55;101648.00;;;5.20
82411;BMP180;76378;60.040;30.218;2024-02-16T02:44:55;101557.00;;;5.20
82411;BMP180;76378;60.040;30.218;2024-02-16T02:45:56;101629.00;;;5.20
82411;BMP180;76378;60.040;30.218;2024-02-16T02:46:56;101639.00;;;5.20
82411;BMP180;76378;60.040;30.218;2024-02-16T02:47:57;101648.00;;;5.20
82411;BMP180;76378;60.040;30.218;2024-02-16T02:48:57;101647.00;;;5.20
82411;BMP180;76378;60.040;30.218;2024-02-16T02:49:58;101647.00;;;5.20
82411;BMP180;76378;60.040;30.218;2024-02-16T02:50:58;101648.00;;;5.30
82411;BMP180;76378;60.040;30.218;2024-02-16T02:52:00;101645.00;;;5.20
82411;BMP180;76378;60.040;30.218;2024-02-16T02:53:00;101657.00;;;5.20
82411;BMP180;76378;60.040;30.218;2024-02-16T02:54:01;101647.00;;;5.20
82411;BMP180;76378;60.040;30.218;2024-02-16T02:55:02;101644.00;;;5.20
82411;BMP180;76378;60.040;30.218;2024-02-16T02:56:03;101649.00;;;5.30
82411;BMP180;76378;60.040;30.218;2024-02-16T02:57:03;101649.00;;;5.20
82411;BMP180;76378;60.040;30.218;2024-02-16T02:58:04;101635.00;;;5.20
82411;BMP180;76378;60.040;30.218;2024-02-16T02:59:05;101640.00;;;5.30
82411;BMP180;76378;60.040;30.218;2024-02-16T03:00:07;101653.00;;;5.30
82411;BMP180;76378;60.040;30.218;2024-02-16T03:01:11;101591.00;;;5.30
82411;BMP180;76378;60.040;30.218;2024-02-16T03:02:13;101642.00;;;5.30
82411;BMP180;76378;60.040;30.218;2024-02-16T03:03:13;101659.00;;;5.30
82411;BMP180;76378;60.040;30.218;2024-02-16T03:04:14;101648.00;;;5.30
82411;BMP180;76378;60.040;30.218;2024-02-16T03:05:14;101654.00;;;5.30
82411;BMP180;76378;60.040;30.218;2024-02-16T03:06:19;101631.00;;;5.30
82411;BMP180;76378;60.040;30.218;2024-02-16T03:07:19;101593.00;;;5.30
82411;BMP180;76378;60.040;30.218;2024-02-16T03:08:20;101619.00;;;5.30
82411;BMP180;76378;60.040;30.218;2024-02-16T03:09:20;101648.00;;;5.30
82411;BMP180;76378;60.040;30.218;2024-02-16T03:10:22;101592.00;;;5.30
82411;BMP180;76378;60.040;30.218;2024-02-16T03:11:24;101657.00;;;5.20
82411;BMP180;76378;60.040;30.218;2024-02-16T03:12:24;101620.00;;;5.30
82411;BMP180;76378;60.040;30.218;2024-02-16T03:13:25;101667.00;;;5.30
82411;BMP180;76378;60.040;30.218;2024-02-16T03:14:25;101603.00;;;5.30
82411;BMP180;76378;60.040;30.218;2024-02-16T03:15:26;101655.00;;;5.30
82411;BMP180;76378;60.040;30.218;2024-02-16T03:16:26;101660.00;;;5.30
82411;BMP180;76378;60.040;30.218;2024-02-16T03:17:27;101670.00;;;5.30
82411;BMP180;76378;60.040;30.218;2024-02-16T03:18:31;101620.00;;;5.30
82411;BMP180;76378;60.040;30.218;2024-02-16T03:19:32;101664.00;;;5.30
82411;BMP180;76378;60.040;30.218;2024-02-16T03:20:32;101619.00;;;5.30
82411;BMP180;76378;60.040;30.218;2024-02-16T03:21:33;101663.00;;;5.30
82411;BMP180;76378;60.040;30.218;2024-02-16T03:22:33;101546.00;;;5.30
82411;BMP180;76378;60.040;30.218;2024-02-16T03:23:34;101575.00;;;5.30
82411;BMP180;76378;60.040;30.218;2024-02-16T03:24:34;101614.00;;;5.30
82411;BMP180;76378;60.040;30.218;2024-02-16T03:25:35;101674.00;;;5.30
82411;BMP180;76378;60.040;30.218;2024-02-16T03:26:36;101612.00;;;5.30
82411;BMP180;76378;60.040;30.218;2024-02-16T03:27:36;101652.00;;;5.30
82411;BMP180;76378;60.040;30.218;2024-02-16T03:28:37;101657.00;;;5.40
82411;BMP180;76378;60.040;30.218;2024-02-16T03:29:38;101661.00;;;5.40
82411;BMP180;76378;60.040;30.218;2024-02-16T03:30:39;101608.00;;;5.40
82411;BMP180;76378;60.040;30.218;2024-02-16T03:31:39;101606.00;;;5.40
82411;BMP180;76378;60.040;30.218;2024-02-16T03:32:40;101653.00;;;5.40
82411;BMP180;76378;60.040;30.218;2024-02-16T03:33:41;101614.00;;;5.40
82411;BMP180;76378;60.040;30.218;2024-02-16T03:34:41;101663.00;;;5.40
82411;BMP180;76378;60.040;30.218;2024-02-16T03:35:42;101650.00;;;5.40
82411;BMP180;76378;60.040;30.218;2024-02-16T03:36:43;101643.00;;;5.40
82411;BMP180;76378;60.040;30.218;2024-02-16T03:37:43;101622.00;;;5.40
82411;BMP180;76378;60.040;30.218;2024-02-16T03:38:45;101655.00;;;5.40
82411;BMP180;76378;60.040;30.218;2024-02-16T03:39:46;101651.00;;;5.40
82411;BMP180;76378;60.040;30.218;2024-02-16T03:40:47;101582.00;;;5.40
82411;BMP180;76378;60.040;30.218;2024-02-16T03:41:48;101654.00;;;5.40
82411;BMP180;76378;60.040;30.218;2024-02-16T03:42:49;101639.00;;;5.40
82411;BMP180;76378;60.040;30.218;2024-02-16T03:43:50;101655.00;;;5.40
82411;BMP180;76378;60.040;30.218;2024-02-16T03:44:51;101651.00;;;5.40
82411;BMP180;76378;60.040;30.218;2024-02-16T03:45:51;101580.00;;;5.40
82411;BMP180;76378;60.040;30.218;2024-02-16T03:46:52;101650.00;;;5.40
82411;BMP180;76378;60.040;30.218;2024-02-16T03:47:52;101590.00;;;5.40
82411;BMP180;76378;60.040;30.218;2024-02-16T03:48:53;101608.00;;;5.50
82411;BMP180;76378;60.040;30.218;2024-02-16T03:49:54;101629.00;;;5.50
82411;BMP180;76378;60.040;30.218;2024-02-16T03:50:54;101646.00;;;5.50
82411;BMP180;76378;60.040;30.218;2024-02-16T03:51:55;101656.00;;;5.50
82411;BMP180;76378;60.040;30.218;2024-02-16T03:52:55;101663.00;;;5.50
82411;BMP180;76378;60.040;30.218;2024-02-16T03:53:56;101655.00;;;5.50
82411;BMP180;76378;60.040;30.218;2024-02-16T03:54:56;101645.00;;;5.50
82411;BMP180;76378;60.040;30.218;2024-02-16T03:55:57;101649.00;;;5.50
82411;BMP180;76378;60.040;30.218;2024-02-16T03:56:57;101603.00;;;5.50
82411;BMP180;76378;60.040;30.218;2024-02-16T03:58:01;101638.00;;;5.50
82411;BMP180;76378;60.040;30.218;2024-02-16T03:59:02;101594.00;;;5.50
82411;BMP180;76378;60.040;30.218;2024-02-16T04:00:04;101650.00;;;5.50
82411;BMP180;76378;60.040;30.218;2024-02-16T04:01:06;101628.00;;;5.50
82411;BMP180;76378;60.040;30.218;2024-02-16T04:02:07;101592.00;;;5.50
82411;BMP180;76378;60.040;30.218;2024-02-16T04:03:07;101647.00;;;5.50
82411;BMP180;76378;60.040;30.218;2024-02-16T04:04:09;101637.00;;;5.50
82411;BMP180;76378;60.040;30.218;2024-02-16T04:05:10;101662.00;;;5.50
82411;BMP180;76378;60.040;30.218;2024-02-16T04:06:10;101609.00;;;5.50
82411;BMP180;76378;60.040;30.218;2024-02-16T04:07:12;101661.00;;;5.60
82411;BMP180;76378;60.040;30.218;2024-02-16T04:08:12;101622.00;;;5.60
82411;BMP180;76378;60.040;30.218;2024-02-16T04:09:13;101651.00;;;5.60
82411;BMP180;76378;60.040;30.218;2024-02-16T04:10:13;101655.00;;;5.50
82411;BMP180;76378;60.040;30.218;2024-02-16T04:11:14;101662.00;;;5.60
82411;BMP180;76378;60.040;30.218;2024-02-16T04:12:15;101663.00;;;5.60
82411;BMP180;76378;60.040;30.218;2024-02-16T04:13:16;101644.00;;;5.60
82411;BMP180;76378;60.040;30.218;2024-02-16T04:14:16;101598.00;;;5.60
82411;BMP180;76378;60.040;30.218;2024-02-16T04:15:17;101658.00;;;5.60
82411;BMP180;76378;60.040;30.218;2024-02-16T04:16:17;101637.00;;;5.60
82411;BMP180;76378;60.040;30.218;2024-02-16T04:17:18;101642.00;;;5.60
82411;BMP180;76378;60.040;30.218;2024-02-16T04:18:19;101661.00;;;5.60
82411;BMP180;76378;60.040;30.218;2024-02-16T04:19:19;101592.00;;;5.60
82411;BMP180;76378;60.040;30.218;2024-02-16T04:20:20;101657.00;;;5.60
82411;BMP180;76378;60.040;30.218;2024-02-16T04:21:21;101656.00;;;5.60
82411;BMP180;76378;60.040;30.218;2024-02-16T04:22:21;101647.00;;;5.60
82411;BMP180;76378;60.040;30.218;2024-02-16T04:23:22;101640.00;;;5.60
82411;BMP180;76378;60.040;30.218;2024-02-16T04:24:23;101649.00;;;5.60
82411;BMP180;76378;60.040;30.218;2024-02-16T04:25:23;101640.00;;;5.60
82411;BMP180;76378;60.040;30.218;2024-02-16T04:26:24;101601.00;;;5.60
82411;BMP180;76378;60.040;30.218;2024-02-16T04:27:24;101592.00;;;5.60
82411;BMP180;76378;60.040;30.218;2024-02-16T04:28:25;101635.00;;;5.60
82411;BMP180;76378;60.040;30.218;2024-02-16T04:29:26;101621.00;;;5.60
82411;BMP180;76378;60.040;30.218;2024-02-16T04:30:26;101649.00;;;5.60
82411;BMP180;76378;60.040;30.218;2024-02-16T04:31:27;101607.00;;;5.60
82411;BMP180;76378;60.040;30.218;2024-02-16T04:32:27;101585.00;;;5.60
82411;BMP180;76378;60.040;30.218;2024-02-16T04:33:28;101648.00;;;5.60
82411;BMP180;76378;60.040;30.218;2024-02-16T04:34:28;101602.00;;;5.70
82411;BMP180;76378;60.040;30.218;2024-02-16T04:35:28;101637.00;;;5.60
82411;BMP180;76378;60.040;30.218;2024-02-16T04:36:29;101645.00;;;5.70
82411;BMP180;76378;60.040;30.218;2024-02-16T04:37:30;101643.00;;;5.70
82411;BMP180;76378;60.040;30.218;2024-02-16T04:38:30;101636.00;;;5.70
82411;BMP180;76378;60.040;30.218;2024-02-16T04:39:31;101595.00;;;5.70
82411;BMP180;76378;60.040;30.218;2024-02-16T04:40:34;101658.00;;;5.70
82411;BMP180;76378;60.040;30.218;2024-02-16T04:41:36;101643.00;;;5.70
82411;BMP180;76378;60.040;30.218;2024-02-16T04:42:38;101625.00;;;5.70
82411;BMP180;76378;60.040;30.218;2024-02-16T04:43:40;101623.00;;;5.70
82411;BMP180;76378;60.040;30.218;2024-02-16T04:44:41;101628.00;;;5.70
82411;BMP180;76378;60.040;30.218;2024-02-16T04:45:41;101638.00;;;5.70
82411;BMP180;76378;60.040;30.218;2024-02-16T04:46:42;101625.00;;;5.70
82411;BMP180;76378;60.040;30.218;2024-02-16T04:47:43;101633.00;;;5.70
82411;BMP180;76378;60.040;30.218;2024-02-16T04:48:44;101636.00;;;5.70
82411;BMP180;76378;60.040;30.218;2024-02-16T04:49:44;101595.00;;;5.70
82411;BMP180;76378;60.040;30.218;2024-02-16T04:50:45;101559.00;;;5.70
82411;BMP180;76378;60.040;30.218;2024-02-16T04:51:45;101619.00;;;5.70
82411;BMP180;76378;60.040;30.218;2024-02-16T04:52:47;101583.00;;;5.80
82411;BMP180;76378;60.040;30.218;2024-02-16T04:53:48;101576.00;;;5.70
82411;BMP180;76378;60.040;30.218;2024-02-16T04:54:48;101636.00;;;5.80
82411;BMP180;76378;60.040;30.218;2024-02-16T04:55:49;101623.00;;;5.80
82411;BMP180;76378;60.040;30.218;2024-02-16T04:56:49;101619.00;;;5.70
82411;BMP180;76378;60.040;30.218;2024-02-16T04:57:50;101638.00;;;5.80
82411;BMP180;76378;60.040;30.218;2024-02-16T04:58:51;101636.00;;;5.80
82411;BMP180;76378;60.040;30.218;2024-02-16T04:59:51;101632.00;;;5.80
82411;BMP180;76378;60.040;30.218;2024-02-16T05:00:52;101567.00;;;5.80
82411;BMP180;76378;60.040;30.218;2024-02-16T05:01:52;101598.00;;;5.80
82411;BMP180;76378;60.040;30.218;2024-02-16T05:02:53;101583.00;;;5.80
82411;BMP180;76378;60.040;30.218;2024-02-16T05:03:53;101617.00;;;5.80
82411;BMP180;76378;60.040;30.218;2024-02-16T05:04:54;101634.00;;;5.80
82411;BMP180;76378;60.040;30.218;2024-02-16T05:05:55;101606.00;;;5.80
82411;BMP180;76378;60.040;30.218;2024-02-16T05:06:55;101603.00;;;5.80
82411;BMP180;76378;60.040;30.218;2024-02-16T05:07:57;101585.00;;;5.80
82411;BMP180;76378;60.040;30.218;2024-02-16T05:08:58;101622.00;;;5.80
82411;BMP180;76378;60.040;30.218;2024-02-16T05:09:59;101647.00;;;5.80
82411;BMP180;76378;60.040;30.218;2024-02-16T05:11:00;101587.00;;;5.80
82411;BMP180;76378;60.040;30.218;2024-02-16T05:12:03;101633.00;;;5.80
82411;BMP180;76378;60.040;30.218;2024-02-16T05:13:04;101576.00;;;5.80
82411;BMP180;76378;60.040;30.218;2024-02-16T05:14:05;101622.00;;;5.80
82411;BMP180;76378;60.040;30.218;2024-02-16T05:15:06;101558.00;;;5.80
82411;BMP180;76378;60.040;30.218;2024-02-16T05:16:10;101607.00;;;5.80
82411;BMP180;76378;60.040;30.218;2024-02-16T05:17:11;101622.00;;;5.80
82411;BMP180;76378;60.040;30.218;2024-02-16T05:18:12;101635.00;;;5.80
82411;BMP180;76378;60.040;30.218;2024-02-16T05:19:13;101629.00;;;5.80
82411;BMP180;76378;60.040;30.218;2024-02-16T05:20:13;101630.00;;;5.90
82411;BMP180;76378;60.040;30.218;2024-02-16T05:21:17;101646.00;;;5.90
82411;BMP180;76378;60.040;30.218;2024-02-16T05:22:18;101637.00;;;5.90
82411;BMP180;76378;60.040;30.218;2024-02-16T05:23:18;101581.00;;;5.90
82411;BMP180;76378;60.040;30.218;2024-02-16T05:24:19;101650.00;;;5.90
82411;BMP180;76378;60.040;30.218;2024-02-16T05:25:20;101646.00;;;5.80
82411;BMP180;76378;60.040;30.218;2024-02-16T05:26:21;101613.00;;;5.90
82411;BMP180;76378;60.040;30.218;2024-02-16T05:27:21;101570.00;;;5.90
82411;BMP180;76378;60.040;30.218;2024-02-16T05:28:22;101648.00;;;5.90
82411;BMP180;76378;60.040;30.218;2024-02-16T05:29:22;101664.00;;;5.90
82411;BMP180;76378;60.040;30.218;2024-02-16T05:30:24;101652.00;;;5.80
82411;BMP180;76378;60.040;30.218;2024-02-16T05:31:24;101593.00;;;5.90
82411;BMP180;76378;60.040;30.218;2024-02-16T05:32:25;101652.00;;;5.90
82411;BMP180;76378;60.040;30.218;2024-02-16T05:33:25;101642.00;;;5.90
82411;BMP180;76378;60.040;30.218;2024-02-16T05:34:27;101657.00;;;5.90
82411;BMP180;76378;60.040;30.218;2024-02-16T05:35:32;101649.00;;;5.90
82411;BMP180;76378;60.040;30.218;2024-02-16T05:36:34;101661.00;;;5.90
82411;BMP180;76378;60.040;30.218;2024-02-16T05:37:36;101599.00;;;5.90
82411;BMP180;76378;60.040;30.218;2024-02-16T05:38:37;101645.00;;;5.90
82411;BMP180;76378;60.040;30.218;2024-02-16T05:39:41;101645.00;;;5.90
82411;BMP180;76378;60.040;30.218;2024-02-16T05:40:57;101663.00;;;5.90
82411;BMP180;76378;60.040;30.218;2024-02-16T05:41:57;101666.00;;;5.90
82411;BMP180;76378;60.040;30.218;2024-02-16T05:42:58;101594.00;;;5.90
82411;BMP180;76378;60.040;30.218;2024-02-16T05:43:58;101604.00;;;5.90
82411;BMP180;76378;60.040;30.218;2024-02-16T05:44:59;101662.00;;;5.90
82411;BMP180;76378;60.040;30.218;2024-02-16T05:46:00;101643.00;;;5.90